Time;durP1;ratioP1;P1;durP2;ratioP2;P2;SDS_P1;SDS_P2;PMS_P1;PMS_P2;Temp;Humidity;BMP_temperature;BMP_pressure;BME280_temperature;BME280_humidity;BME280_pressure;Samples;Min_cycle;Max_cycle;Signal;HPM_P1;HPM_P2
2022/05/09 00:01:08;;;;;;;;;;;16.30;59.50;;;;;;5115871;28;20098;-72
2022/05/09 00:03:35;;;;;;;12.65;6.10;;;16.30;58.70;;;;;;5097598;28;19923;-73
2022/05/09 00:06:04;;;;;;;12.65;5.68;;;16.10;59.20;;;;;;5096121;28;20039;-76
2022/05/09 00:08:30;;;;;;;12.07;5.63;;;16.20;59.70;;;;;;5114966;28;20070;-75
2022/05/09 00:10:56;;;;;;;10.15;6.22;;;16.10;59.70;;;;;;5096555;28;20032;-73
2022/05/09 00:13:22;;;;;;;10.88;6.20;;;16.10;59.80;;;;;;5097204;28;20035;-73
2022/05/09 00:15:48;;;;;;;10.93;5.85;;;16.00;59.90;;;;;;5115097;28;20059;-72
2022/05/09 00:18:16;;;;;;;12.65;5.78;;;16.00;60.10;;;;;;5097196;28;20411;-74
2022/05/09 00:20:43;;;;;;;10.60;5.63;;;16.00;60.30;;;;;;5075792;28;20035;-72
2022/05/09 00:23:09;;;;;;;;;;;16.00;60.40;;;;;;5077347;28;20059;-76
2022/05/09 00:25:35;;;;;;;12.38;5.80;;;16.00;59.60;;;;;;5076181;28;19916;-76
2022/05/09 00:28:04;;;;;;;9.75;5.32;;;16.00;60.10;;;;;;5076766;28;20400;-72
2022/05/09 00:30:30;;;;;;;12.32;5.88;;;16.00;59.60;;;;;;5076148;28;20151;-76
2022/05/09 00:32:56;;;;;;;9.95;5.82;;;16.10;60.30;;;;;;5076811;28;20340;-76
2022/05/09 00:35:22;;;;;;;8.07;5.13;;;16.00;60.20;;;;;;5104271;28;20044;-76
2022/05/09 00:37:48;;;;;;;;;;;16.00;60.40;;;;;;5097533;28;20295;-76
2022/05/09 00:40:16;;;;;;;8.65;5.30;;;16.00;60.00;;;;;;5096452;28;20341;-73
2022/05/09 00:43:02;;;;;;;10.65;5.55;;;15.90;60.10;;;;;;5096894;28;20063;-72
2022/05/09 00:45:33;;;;;;;13.05;5.50;;;16.00;60.30;;;;;;5114391;28;20031;-72
2022/05/09 00:47:59;;;;;;;9.05;6.10;;;16.00;60.70;;;;;;5115235;28;20484;-75
2022/05/09 00:50:31;;;;;;;9.57;5.07;;;16.00;60.70;;;;;;5074972;28;20028;-75
2022/05/09 00:53:18;;;;;;;10.10;6.20;;;16.00;60.60;;;;;;5059679;28;20105;-72
2022/05/09 00:55:51;;;;;;;11.10;6.18;;;16.00;60.70;;;;;;5076013;28;20032;-76
2022/05/09 00:58:40;;;;;;;8.02;5.75;;;15.90;60.90;;;;;;5076079;28;20070;-76
2022/05/09 01:01:10;;;;;;;8.07;5.20;;;15.80;61.20;;;;;;5075721;28;20020;-73
2022/05/09 01:04:16;;;;;;;9.38;5.30;;;15.70;61.70;;;;;;5076019;28;20032;-73
2022/05/09 01:06:43;;;;;;;9.00;5.50;;;15.60;61.80;;;;;;5094840;28;20092;-76
2022/05/09 01:09:11;;;;;;;11.75;6.15;;;15.50;62.20;;;;;;5096013;28;20031;-73
2022/05/09 01:11:40;;;;;;;10.18;5.75;;;15.40;62.40;;;;;;5095787;28;20038;-76
2022/05/09 01:14:44;;;;;;;13.25;6.07;;;15.30;62.60;;;;;;5095503;28;20450;-76
2022/05/09 01:17:11;;;;;;;9.05;5.10;;;15.30;62.60;;;;;;5114030;28;20035;-76
2022/05/09 01:19:58;;;;;;;10.32;5.68;;;15.20;62.70;;;;;;5078042;27;20032;-76
2022/05/09 01:22:43;;;;;;;9.82;5.53;;;15.20;62.60;;;;;;5094875;28;20480;-73
2022/05/09 01:25:18;;;;;;;9.98;5.90;;;15.20;62.60;;;;;;5095377;28;20066;-72
2022/05/09 01:28:06;;;;;;;10.80;5.32;;;15.20;62.60;;;;;;5079379;28;20665;-73
2022/05/09 01:30:56;;;;;;;11.98;6.30;;;15.20;62.60;;;;;;5112913;28;20061;-73
2022/05/09 01:33:43;;;;;;;10.15;6.03;;;15.20;62.90;;;;;;5095775;28;20100;-73
2022/05/09 01:36:32;;;;;;;9.52;5.70;;;15.20;63.00;;;;;;5094362;28;20039;-76
2022/05/09 01:39:07;;;;;;;8.05;5.03;;;15.20;62.90;;;;;;5078900;28;20499;-73
2022/05/09 01:41:52;;;;;;;9.38;5.45;;;15.20;63.00;;;;;;5095240;28;20035;-72
2022/05/09 01:44:19;;;;;;;9.35;4.97;;;15.10;63.30;;;;;;5113534;28;20039;-73
2022/05/09 01:49:34;;;;;;;16.33;5.47;;;15.00;63.20;;;;;;5098130;28;20034;-76
2022/05/09 01:52:21;;;;;;;11.90;5.22;;;15.00;63.20;;;;;;5094446;28;20110;-75
2022/05/09 01:54:48;;;;;;;8.38;5.35;;;14.90;63.40;;;;;;5095282;28;20046;-76
2022/05/09 01:57:17;;;;;;;9.88;4.72;;;14.80;63.60;;;;;;5094952;28;20058;-75
2022/05/09 01:59:44;;;;;;;8.40;4.90;;;14.70;63.90;;;;;;5078308;28;20492;-76
2022/05/09 02:02:16;;;;;;;9.93;5.07;;;14.70;63.80;;;;;;5113010;28;20032;-73
2022/05/09 02:04:43;;;;;;;7.88;4.95;;;14.70;63.80;;;;;;5113423;28;20036;-72
2022/05/09 02:07:17;;;;;;;8.07;5.20;;;14.60;63.00;;;;;;5112421;28;20046;-76
2022/05/09 02:09:46;;;;;;;9.77;4.78;;;14.60;63.60;;;;;;5095229;28;20558;-72
2022/05/09 02:12:14;;;;;;;11.88;4.95;;;14.50;63.60;;;;;;5094679;28;20055;-72
2022/05/09 02:14:40;;;;;;;8.55;5.22;;;14.40;63.50;;;;;;5094994;28;20042;-76
2022/05/09 02:17:08;;;;;;;11.23;5.43;;;14.30;63.20;;;;;;5094801;28;20044;-72
2022/05/09 02:19:40;;;;;;;11.95;5.05;;;14.20;63.90;;;;;;5095007;28;20024;-72
2022/05/09 02:22:09;;;;;;;8.93;5.10;;;14.20;64.00;;;;;;5093874;28;20084;-76
2022/05/09 02:24:35;;;;;;;10.77;5.20;;;14.10;64.20;;;;;;5094862;28;20449;-77
2022/05/09 02:27:03;;;;;;;10.50;4.75;;;14.00;64.20;;;;;;5094763;28;20169;-77
2022/05/09 02:29:31;;;;;;;10.27;5.25;;;14.00;63.90;;;;;;5094772;28;20031;-76
2022/05/09 02:32:02;;;;;;;11.88;5.00;;;14.00;64.50;;;;;;5112555;28;20391;-72
2022/05/09 02:34:29;;;;;;;8.18;4.57;;;14.00;64.60;;;;;;5095190;28;20042;-72
2022/05/09 02:36:55;;;;;;;;;;;14.10;64.00;;;;;;5094248;28;20043;-76
2022/05/09 02:39:21;;;;;;;8.48;3.92;;;14.20;63.60;;;;;;5112891;28;20253;-77
2022/05/09 02:41:48;;;;;;;8.30;5.07;;;14.40;63.90;;;;;;5112856;28;20050;-77
2022/05/09 02:44:14;;;;;;;8.95;3.58;;;14.50;63.60;;;;;;5094754;28;20028;-76
2022/05/09 02:46:42;;;;;;;6.30;3.63;;;14.70;63.40;;;;;;5112557;28;20027;-76
2022/05/09 02:49:11;;;;;;;11.00;4.10;;;14.80;62.90;;;;;;5077913;28;20118;-73
2022/05/09 02:51:38;;;;;;;8.35;4.03;;;15.00;62.50;;;;;;5073158;28;20032;-77
2022/05/09 02:54:05;;;;;;;9.00;3.90;;;15.10;62.20;;;;;;5092501;28;20027;-76
2022/05/09 02:56:31;;;;;;;8.05;3.83;;;15.30;62.00;;;;;;5090928;28;20040;-73
2022/05/09 02:58:57;;;;;;;8.23;3.90;;;15.40;61.90;;;;;;5091234;28;20378;-76
2022/05/09 03:01:26;;;;;;;8.68;4.75;;;15.40;60.90;;;;;;5091999;28;20073;-77
2022/05/09 03:06:36;;;;;;;8.93;4.72;;;15.60;61.50;;;;;;5102001;28;20069;-76
2022/05/09 03:09:03;;;;;;;8.05;4.40;;;15.60;61.30;;;;;;5094574;28;20084;-73
2022/05/09 03:11:30;;;;;;;7.32;4.32;;;15.60;61.50;;;;;;5094132;28;20047;-72
2022/05/09 03:13:56;;;;;;;9.75;4.28;;;15.60;61.50;;;;;;5094210;28;20393;-74
2022/05/09 03:16:22;;;;;;;8.63;3.95;;;15.60;61.50;;;;;;5093965;28;20089;-77
2022/05/09 03:18:51;;;;;;;7.57;4.15;;;15.70;61.30;;;;;;5094322;28;20544;-77
2022/05/09 03:21:19;;;;;;;6.97;4.10;;;15.80;60.90;;;;;;5093500;28;20104;-77
2022/05/09 03:23:51;;;;;;;9.13;3.72;;;15.80;60.60;;;;;;5094411;28;20036;-76
2022/05/09 03:26:19;;;;;;;9.48;3.85;;;15.80;60.40;;;;;;5077950;28;20404;-73
2022/05/09 03:28:48;;;;;;;7.80;4.63;;;15.90;60.40;;;;;;5094128;28;20472;-77
2022/05/09 03:31:15;;;;;;;11.00;6.20;;;15.90;60.20;;;;;;5076911;28;20088;-73
2022/05/09 03:33:41;;;;;;;;;;;15.80;61.70;;;;;;5094773;28;20099;-76
2022/05/09 03:36:07;;;;;;;11.75;6.05;;;15.60;61.80;;;;;;5111284;28;19962;-73
2022/05/09 03:38:33;;;;;;;;;;;15.40;62.80;;;;;;5094612;28;20039;-77
2022/05/09 03:40:59;;;;;;;10.25;5.85;;;15.30;63.00;;;;;;5093660;28;19916;-73
2022/05/09 03:43:25;;;;;;;12.65;6.55;;;15.10;63.60;;;;;;5094094;28;20028;-76
2022/05/09 03:45:55;;;;;;;15.27;6.45;;;15.10;63.80;;;;;;5096658;28;20058;-72
2022/05/09 03:48:21;;;;;;;11.93;6.32;;;15.10;63.30;;;;;;5097771;28;20036;-72
2022/05/09 03:50:48;;;;;;;9.10;6.00;;;15.00;64.20;;;;;;5096642;28;20111;-76
2022/05/09 03:53:14;;;;;;;11.90;6.75;;;14.90;64.20;;;;;;5097382;28;20094;-72
2022/05/09 03:55:40;;;;;;;;;;;14.80;65.10;;;;;;5115993;28;20027;-76
2022/05/09 03:58:06;;;;;;;10.63;6.45;;;14.80;64.50;;;;;;5097708;28;20007;-72
2022/05/09 04:00:36;;;;;;;12.82;6.85;;;14.70;65.30;;;;;;5115378;28;20527;-76
2022/05/09 04:03:04;;;;;;;10.07;6.75;;;14.60;65.00;;;;;;5080411;28;20130;-76
2022/05/09 04:05:35;;;;;;;12.50;6.75;;;14.50;66.20;;;;;;5096919;28;20039;-76
2022/05/09 04:08:07;;;;;;;12.75;7.00;;;14.50;66.60;;;;;;5115257;28;20429;-76
2022/05/09 04:10:36;;;;;;;9.95;6.55;;;14.50;66.60;;;;;;5096959;28;20033;-77
2022/05/09 04:13:03;;;;;;;13.82;6.78;;;14.50;66.30;;;;;;5097526;28;20058;-76
2022/05/09 04:18:17;;;;;;;12.18;7.30;;;14.40;67.20;;;;;;5099902;28;20046;-72
2022/05/09 04:20:48;;;;;;;12.48;7.43;;;14.30;67.60;;;;;;5096891;28;20468;-76
2022/05/09 04:23:15;;;;;;;11.25;7.30;;;14.40;67.60;;;;;;5075905;28;20089;-72
2022/05/09 04:25:42;;;;;;;16.55;7.80;;;14.40;67.70;;;;;;5059279;28;20052;-73
2022/05/09 04:28:09;;;;;;;15.77;7.55;;;14.40;67.70;;;;;;5076951;28;20028;-77
2022/05/09 04:30:38;;;;;;;11.63;8.02;;;14.40;68.20;;;;;;5094406;28;20036;-76
2022/05/09 04:33:07;;;;;;;15.90;8.77;;;14.40;68.10;;;;;;5076556;28;20089;-73
2022/05/09 04:35:35;;;;;;;11.80;7.30;;;14.50;68.00;;;;;;5076275;28;20032;-76
2022/05/09 04:38:02;;;;;;;11.20;6.85;;;14.50;68.20;;;;;;5091771;28;20373;-73
2022/05/09 04:40:32;;;;;;;18.10;8.00;;;14.40;68.30;;;;;;5079482;28;20050;-76
2022/05/09 04:42:59;;;;;;;12.32;7.50;;;14.50;68.50;;;;;;5097045;28;20454;-72
2022/05/09 04:45:28;;;;;;;12.95;7.65;;;14.50;68.60;;;;;;5079270;28;20027;-76
2022/05/09 04:47:55;;;;;;;10.98;7.47;;;14.50;68.60;;;;;;5096846;28;20038;-76
2022/05/09 04:50:23;;;;;;;;;;;14.70;68.20;;;;;;5096689;28;20063;-72
2022/05/09 04:52:50;;;;;;;11.88;7.30;;;14.70;67.20;;;;;;5095876;28;19947;-76
2022/05/09 04:55:17;;;;;;;21.02;7.28;;;14.70;67.50;;;;;;5113992;28;20084;-77
2022/05/09 04:57:44;;;;;;;15.82;7.45;;;14.80;67.80;;;;;;5114897;28;20042;-73
2022/05/09 05:00:15;;;;;;;14.32;7.30;;;14.80;67.70;;;;;;5095837;28;20473;-73
2022/05/09 05:02:44;;;;;;;12.80;7.22;;;14.90;67.80;;;;;;5079632;28;20044;-76
2022/05/09 05:05:12;;;;;;;12.18;7.57;;;15.00;67.70;;;;;;5113964;28;20429;-76
2022/05/09 05:07:38;;;;;;;15.98;7.55;;;15.00;67.60;;;;;;5095533;28;20054;-76
2022/05/09 05:10:06;;;;;;;13.23;7.47;;;15.10;67.80;;;;;;5096084;28;20024;-76
2022/05/09 05:12:32;;;;;;;14.27;8.07;;;15.00;67.70;;;;;;5096209;28;20043;-73
2022/05/09 05:15:00;;;;;;;10.90;7.28;;;15.00;68.10;;;;;;5095928;28;20125;-76
2022/05/09 05:17:26;;;;;;;15.30;7.20;;;15.00;68.00;;;;;;5095938;28;20117;-72
2022/05/09 05:19:55;;;;;;;16.25;8.10;;;15.10;67.70;;;;;;5096139;28;20027;-76
2022/05/09 05:22:21;;;;;;;12.70;7.78;;;15.10;68.30;;;;;;5094807;28;20043;-76
2022/05/09 05:24:58;;;;;;;10.95;7.03;;;15.20;67.80;;;;;;5095490;28;20485;-74
2022/05/09 05:27:26;;;;;;;15.65;7.50;;;15.30;67.90;;;;;;5095594;28;20496;-73
2022/05/09 05:29:57;;;;;;;11.02;7.65;;;15.40;67.30;;;;;;5095716;28;20024;-73
2022/05/09 05:32:42;;;;;;;14.95;7.00;;;15.50;67.10;;;;;;5096167;28;20126;-76
2022/05/09 05:35:28;;;;;;;11.20;7.15;;;15.60;66.70;;;;;;5095371;28;20449;-76
2022/05/09 05:37:55;;;;;;;11.77;6.78;;;15.70;66.80;;;;;;5074597;28;20116;-73
2022/05/09 05:40:21;;;;;;;;;;;15.80;66.70;;;;;;5075495;28;20499;-72
2022/05/09 05:42:52;;;;;;;10.85;6.63;;;15.80;66.10;;;;;;5075489;28;19920;-76
2022/05/09 05:45:31;;;;;;;11.02;6.60;;;15.90;66.20;;;;;;5074903;28;20457;-76
2022/05/09 05:48:00;;;;;;;12.15;6.28;;;15.90;66.20;;;;;;5076753;28;20113;-76
2022/05/09 05:50:26;;;;;;;10.95;6.80;;;16.00;66.20;;;;;;5074477;28;20038;-75
2022/05/09 05:52:57;;;;;;;10.15;6.25;;;16.10;66.20;;;;;;5083780;28;20047;-73
2022/05/09 05:55:24;;;;;;;10.90;6.70;;;16.20;66.00;;;;;;5113129;28;20084;-76
2022/05/09 05:57:50;;;;;;;11.00;6.70;;;16.30;66.00;;;;;;5113892;28;20070;-73
2022/05/09 06:00:21;;;;;;;13.35;6.53;;;16.30;66.10;;;;;;5094763;28;20489;-73
2022/05/09 06:02:48;;;;;;;13.30;6.05;;;16.30;66.30;;;;;;5113644;28;20511;-73
2022/05/09 06:05:23;;;;;;;10.68;5.75;;;16.40;65.80;;;;;;5094724;28;20035;-72
2022/05/09 06:07:55;;;;;;;12.20;6.28;;;16.50;65.60;;;;;;5112338;28;20040;-76
2022/05/09 06:10:26;;;;;;;11.23;6.25;;;16.50;65.20;;;;;;5112940;28;20476;-73
2022/05/09 06:12:53;;;;;;;10.07;6.43;;;16.50;65.20;;;;;;5095535;28;20469;-76
2022/05/09 06:15:32;;;;;;;9.05;5.65;;;16.50;65.20;;;;;;5093592;28;20539;-75
2022/05/09 06:18:01;;;;;;;9.40;6.40;;;16.50;65.40;;;;;;5096029;28;20032;-76
2022/05/09 06:20:31;;;;;;;12.25;6.07;;;16.50;65.20;;;;;;5094636;28;20027;-76
2022/05/09 06:22:59;;;;;;;11.68;6.60;;;16.60;65.00;;;;;;5112555;28;20506;-73
2022/05/09 06:25:30;;;;;;;8.52;5.63;;;16.70;65.00;;;;;;5094393;28;20047;-75
2022/05/09 06:28:00;;;;;;;10.20;5.75;;;16.80;64.60;;;;;;5095680;28;20039;-76
2022/05/09 06:30:27;;;;;;;12.07;6.68;;;16.80;64.50;;;;;;5094959;28;20035;-76
2022/05/09 06:33:01;;;;;;;13.90;5.55;;;16.90;64.30;;;;;;5095007;28;20027;-72
2022/05/09 06:35:30;;;;;;;12.02;6.45;;;17.10;64.10;;;;;;5094532;28;20101;-73
2022/05/09 06:38:18;;;;;;;8.52;5.30;;;17.30;63.60;;;;;;5073867;28;20032;-77
2022/05/09 06:40:45;;;;;;;9.05;5.63;;;17.40;63.10;;;;;;5092064;28;20028;-73
2022/05/09 06:43:11;;;;;;;11.77;5.88;;;17.60;62.70;;;;;;5057689;28;20036;-76
2022/05/09 06:45:38;;;;;;;11.95;5.68;;;17.70;62.10;;;;;;5057345;28;20032;-76
2022/05/09 06:48:05;;;;;;;12.60;6.32;;;17.90;62.20;;;;;;5074751;28;20064;-73
2022/05/09 06:50:50;;;;;;;9.35;5.00;;;18.10;60.60;;;;;;5074192;28;20024;-73
2022/05/09 06:53:17;;;;;;;8.45;5.13;;;18.40;59.80;;;;;;5100596;28;20038;-75
2022/05/09 06:55:44;;;;;;;12.80;5.68;;;18.40;59.20;;;;;;5094398;28;20027;-76
2022/05/09 06:58:13;;;;;;;9.35;5.38;;;18.60;58.90;;;;;;5094357;28;20047;-73
2022/05/09 07:00:39;;;;;;;7.97;4.72;;;18.60;58.90;;;;;;5094295;28;20073;-76
2022/05/09 07:03:14;;;;;;;8.35;5.05;;;18.60;59.00;;;;;;5113241;28;20042;-73
2022/05/09 07:05:44;;;;;;;9.98;5.53;;;18.70;58.70;;;;;;5077191;28;20043;-76
2022/05/09 07:08:19;;;;;;;9.68;5.60;;;19.00;58.10;;;;;;5111704;28;20045;-73
2022/05/09 07:10:46;;;;;;;12.13;6.53;;;19.20;57.40;;;;;;5094428;28;20030;-76
2022/05/09 07:13:12;;;;;;;10.05;5.53;;;19.40;57.20;;;;;;5113001;28;20448;-73
2022/05/09 07:15:38;;;;;;;;;;;19.50;56.90;;;;;;5113173;28;20414;-73
2022/05/09 07:18:07;;;;;;;8.48;5.20;;;19.70;57.60;;;;;;5094742;28;19968;-76
2022/05/09 07:20:35;;;;;;;13.10;6.20;;;20.00;56.00;;;;;;5116067;28;20028;-76
2022/05/09 07:23:20;;;;;;;12.85;6.03;;;20.30;55.50;;;;;;5115710;28;20028;-72
2022/05/09 07:25:46;;;;;;;17.95;6.00;;;20.50;55.10;;;;;;5080608;28;20050;-73
2022/05/09 07:28:18;;;;;;;15.05;6.70;;;20.60;54.80;;;;;;5080787;28;20604;-73
2022/05/09 07:30:45;;;;;;;12.65;6.53;;;20.80;54.40;;;;;;5098261;28;20502;-73
2022/05/09 07:33:12;;;;;;;14.05;5.55;;;21.00;54.50;;;;;;5116686;28;20044;-72
2022/05/09 07:35:38;;;;;;;11.15;5.57;;;21.30;53.20;;;;;;5080655;28;20035;-77
2022/05/09 07:38:05;;;;;;;10.20;5.90;;;21.50;52.50;;;;;;5097345;28;20043;-74
2022/05/09 07:40:32;;;;;;;9.30;5.15;;;21.50;52.40;;;;;;5115708;28;20027;-73
2022/05/09 07:42:58;;;;;;;14.27;10.27;;;21.50;52.10;;;;;;5116528;28;20036;-74
2022/05/09 07:45:25;;;;;;;9.70;6.65;;;21.50;51.80;;;;;;5097091;28;20043;-74
2022/05/09 07:47:54;;;;;;;12.55;7.07;;;21.70;51.40;;;;;;5098054;28;20119;-76
2022/05/09 07:50:20;;;;;;;13.02;7.85;;;21.70;51.10;;;;;;5115470;28;20454;-73
2022/05/09 07:52:46;;;;;;;;;;;21.70;50.90;;;;;;5098055;28;20043;-73
2022/05/09 07:55:15;;;;;;;19.05;9.23;;;21.80;52.00;;;;;;5114982;28;19938;-76
2022/05/09 07:57:53;;;;;;;17.90;5.93;;;21.90;50.60;;;;;;5116201;28;20476;-74
2022/05/09 08:00:22;;;;;;;9.35;5.57;;;22.10;50.00;;;;;;5097259;28;20535;-76
2022/05/09 08:02:48;;;;;;;10.02;5.13;;;22.30;49.20;;;;;;5097726;28;20643;-76
2022/05/09 08:05:14;;;;;;;;;;;22.60;48.90;;;;;;5115787;28;20446;-77
2022/05/09 08:07:41;;;;;;;10.05;5.25;;;22.80;49.70;;;;;;5097738;28;19919;-73
2022/05/09 08:10:10;;;;;;;14.35;5.32;;;23.20;47.60;;;;;;5078598;28;20032;-77
2022/05/09 08:12:39;;;;;;;9.32;4.55;;;23.60;46.90;;;;;;5077218;28;20127;-74
2022/05/09 08:15:08;;;;;;;12.75;5.10;;;24.10;46.10;;;;;;5060148;28;20481;-77
2022/05/09 08:17:34;;;;;;;17.75;5.25;;;24.60;45.30;;;;;;5077023;28;20068;-74
2022/05/09 08:20:00;;;;;;;;;;;25.00;44.60;;;;;;5060853;28;20039;-77
2022/05/09 08:22:31;;;;;;;8.30;5.30;;;25.40;46.60;;;;;;5076602;28;19920;-78
2022/05/09 08:24:58;;;;;;;13.93;4.43;;;25.80;43.40;;;;;;5109826;28;20130;-80
2022/05/09 08:27:30;;;;;;;12.77;5.28;;;26.20;42.00;;;;;;5096756;28;20074;-79
2022/05/09 08:29:59;;;;;;;7.70;4.82;;;26.50;40.60;;;;;;5096343;28;20102;-73
2022/05/09 08:32:27;;;;;;;10.00;4.50;;;26.80;40.50;;;;;;5096436;28;20035;-73
2022/05/09 08:34:53;;;;;;;10.73;4.30;;;27.30;39.30;;;;;;5096998;28;20036;-78
2022/05/09 08:37:20;;;;;;;9.05;4.25;;;27.80;38.40;;;;;;5114837;28;20032;-74
2022/05/09 08:39:47;;;;;;;12.63;4.78;;;28.40;37.00;;;;;;5114047;28;20031;-73
2022/05/09 08:42:54;;;;;;;13.00;5.05;;;28.70;36.30;;;;;;5096413;28;20036;-79
2022/05/09 08:45:47;;;;;;;9.27;5.15;;;29.20;37.70;;;;;;5079184;28;20387;-78
2022/05/09 08:48:55;;;;;;;8.23;4.35;;;29.90;35.40;;;;;;5096996;28;20373;-79
2022/05/09 08:52:18;;;;;;;8.30;4.53;;;30.50;34.80;;;;;;5079246;28;20040;-79
2022/05/09 08:54:45;;;;;;;11.13;5.43;;;31.00;33.70;;;;;;5113939;28;20484;-79
2022/05/09 08:57:50;;;;;;;6.90;4.43;;;31.40;31.30;;;;;;5096200;28;20545;-73
2022/05/09 09:00:29;;;;;;;8.63;4.60;;;32.00;32.10;;;;;;5078953;28;20118;-79
2022/05/09 09:03:34;;;;;;;10.50;5.28;;;32.60;29.90;;;;;;5095478;28;20058;-79
2022/05/09 09:06:34;;;;;;;9.88;4.78;;;33.20;29.60;;;;;;5079010;28;20565;-75
2022/05/09 09:09:38;;;;;;;8.00;4.45;;;33.80;28.60;;;;;;5113327;28;20085;-79
2022/05/09 09:12:48;;;;;;;13.75;4.53;;;34.30;27.30;;;;;;5095726;28;20071;-74
2022/05/09 09:16:12;;;;;;;10.98;4.68;;;34.70;26.80;;;;;;5113906;28;20024;-73
2022/05/09 09:19:04;;;;;;;9.05;4.90;;;35.20;27.00;;;;;;5114249;28;20146;-73
2022/05/09 09:21:47;;;;;;;12.00;4.68;;;35.60;25.60;;;;;;5113860;28;20122;-74
2022/05/09 09:24:59;;;;;;;7.55;4.80;;;36.10;24.90;;;;;;5095077;28;20055;-78
2022/05/09 09:28:02;;;;;;;9.25;4.70;;;36.50;25.00;;;;;;5113837;28;20042;-73
2022/05/09 09:30:29;;;;;;;9.02;4.70;;;37.00;24.60;;;;;;5095409;28;20457;-73
2022/05/09 09:33:16;;;;;;;7.90;4.82;;;37.40;23.50;;;;;;5114436;28;20038;-74
2022/05/09 09:36:19;;;;;;;6.68;4.65;;;37.90;23.30;;;;;;5113433;28;20027;-79
2022/05/09 09:39:26;;;;;;;11.80;4.88;;;38.40;22.70;;;;;;5112808;28;20078;-77
2022/05/09 09:41:55;;;;;;;9.15;4.90;;;38.10;22.60;;;;;;5091726;28;20120;-79
2022/05/09 09:44:44;;;;;;;8.18;4.05;;;38.50;22.10;;;;;;5092054;28;20093;-75
2022/05/09 09:47:35;;;;;;;9.07;4.93;;;39.00;22.00;;;;;;5091900;28;20036;-74
2022/05/09 09:50:58;;;;;;;8.30;4.78;;;38.40;21.70;;;;;;5075128;28;20028;-74
2022/05/09 09:54:02;;;;;;;6.53;4.65;;;37.60;22.40;;;;;;5093209;28;20047;-73
2022/05/09 09:59:35;;;;;;;7.07;4.50;;;38.40;21.00;;;;;;5093188;28;20500;-73
2022/05/09 10:02:41;;;;;;;7.13;4.40;;;39.10;21.10;;;;;;5092975;28;20063;-78
2022/05/09 10:05:33;;;;;;;6.60;4.40;;;39.60;20.20;;;;;;5074568;28;20055;-78
2022/05/09 10:08:36;;;;;;;7.25;4.28;;;40.10;20.40;;;;;;5075027;28;20240;-73
2022/05/09 10:11:24;;;;;;;7.03;4.32;;;40.50;19.80;;;;;;5109659;28;20035;-77
2022/05/09 10:13:56;;;;;;;10.27;4.45;;;39.40;20.10;;;;;;5095088;28;20028;-76
2022/05/09 10:16:45;;;;;;;9.18;4.65;;;38.20;20.00;;;;;;5094705;28;20027;-73
2022/05/09 10:19:31;;;;;;;8.35;4.75;;;38.10;21.20;;;;;;5095612;28;20034;-73
2022/05/09 10:25:28;;;;;;;8.07;4.25;;;39.20;20.20;;;;;;5096403;28;20066;-77
2022/05/09 10:28:15;;;;;;;6.80;4.03;;;39.90;19.50;;;;;;5095153;28;20036;-73
2022/05/09 10:31:07;;;;;;;10.32;4.00;;;40.20;19.30;;;;;;5094533;28;20430;-73
2022/05/09 10:34:16;;;;;;;7.82;4.32;;;40.60;18.70;;;;;;5094431;28;20036;-76
2022/05/09 10:36:53;;;;;;;8.32;4.38;;;41.60;18.70;;;;;;5094488;28;20121;-73
2022/05/09 10:39:33;;;;;;;10.70;4.63;;;42.20;18.00;;;;;;5093992;28;20114;-78
2022/05/09 10:42:03;;;;;;;7.18;3.92;;;42.70;17.90;;;;;;5094557;28;20036;-73
2022/05/09 10:45:14;;;;;;;6.13;3.88;;;42.80;17.00;;;;;;5112753;28;20077;-73
2022/05/09 10:48:37;;;;;;;10.63;4.30;;;43.30;17.60;;;;;;5113198;28;20040;-73
2022/05/09 10:51:39;;;;;;;9.13;4.88;;;43.60;17.30;;;;;;5094352;28;20024;-73
2022/05/09 10:54:14;;;;;;;8.20;4.45;;;43.80;16.80;;;;;;5115043;28;20041;-78
2022/05/09 10:57:37;;;;;;;12.95;4.10;;;44.10;16.70;;;;;;5097542;28;20096;-78
2022/05/09 11:00:25;;;;;;;6.47;3.97;;;44.70;16.40;;;;;;5116955;28;20027;-73
2022/05/09 11:03:39;;;;;;;12.50;4.10;;;45.00;16.10;;;;;;5098871;28;20074;-72
2022/05/09 11:06:41;;;;;;;7.57;3.92;;;45.60;15.80;;;;;;5116427;28;20055;-76
2022/05/09 11:09:28;;;;;;;10.07;4.28;;;45.80;15.00;;;;;;5116507;28;20484;-73
2022/05/09 11:12:06;;;;;;;5.63;3.60;;;46.30;14.80;;;;;;5116294;28;20035;-73
2022/05/09 11:14:40;;;;;;;6.35;3.70;;;46.80;14.30;;;;;;5116890;28;20031;-73
2022/05/09 11:17:21;;;;;;;6.72;4.00;;;47.40;13.90;;;;;;5098206;28;20036;-73
2022/05/09 11:19:56;;;;;;;6.93;3.97;;;47.50;13.30;;;;;;5098234;28;20062;-76
2022/05/09 11:22:52;;;;;;;8.10;4.72;;;47.80;13.20;;;;;;5116468;28;20035;-77
2022/05/09 11:25:24;;;;;;;11.45;3.90;;;47.90;13.50;;;;;;5115323;28;20168;-73
2022/05/09 11:29:04;;;;;;;8.10;3.67;;;48.20;13.00;;;;;;5116829;28;20384;-73
2022/05/09 11:32:17;;;;;;;7.13;4.20;;;48.20;13.30;;;;;;5116029;28;20040;-73
2022/05/09 11:35:07;;;;;;;5.88;3.85;;;48.60;13.20;;;;;;5097899;28;20027;-73
2022/05/09 11:38:16;;;;;;;8.13;3.95;;;49.00;13.10;;;;;;5116571;28;20077;-73
2022/05/09 11:41:29;;;;;;;7.28;4.30;;;49.40;13.10;;;;;;5096513;28;20793;-72
2022/05/09 11:44:11;;;;;;;6.70;4.38;;;49.50;13.20;;;;;;5116205;28;20405;-73
2022/05/09 11:47:04;;;;;;;8.57;4.43;;;50.00;12.60;;;;;;5115580;28;20533;-73
2022/05/09 11:49:42;;;;;;;7.50;4.82;;;50.50;12.30;;;;;;5116003;28;20028;-75
2022/05/09 11:52:26;;;;;;;8.20;4.70;;;50.30;11.60;;;;;;5115857;28;20083;-72
2022/05/09 11:54:55;;;;;;;5.25;4.20;;;50.50;11.70;;;;;;5080263;28;20365;-73
2022/05/09 11:57:41;;;;;;;14.23;5.18;;;50.80;11.40;;;;;;5093857;28;20042;-72
2022/05/09 12:00:50;;;;;;;8.88;4.40;;;51.10;11.90;;;;;;5077174;28;20113;-73
2022/05/09 12:03:54;;;;;;;9.77;5.13;;;51.10;11.80;;;;;;5095247;28;20066;-74
2022/05/09 12:06:40;;;;;;;6.65;4.90;;;51.10;11.90;;;;;;5093812;28;20048;-75
2022/05/09 12:09:13;;;;;;;14.98;6.03;;;51.20;11.70;;;;;;5077183;28;20029;-73
2022/05/09 12:11:58;;;;;;;8.60;4.55;;;51.60;11.30;;;;;;5091009;28;20035;-76
2022/05/09 12:14:44;;;;;;;;;;;51.90;11.30;;;;;;5116018;28;20031;-76
2022/05/09 12:17:50;;;;;;;9.30;4.28;;;52.30;11.80;;;;;;5079690;28;20388;-73
2022/05/09 12:23:57;;;;;;;7.80;4.70;;;52.20;11.20;;;;;;5115389;28;20059;-77
2022/05/09 12:26:44;;;;;;;7.47;4.75;;;52.50;10.80;;;;;;5095367;28;20549;-75
2022/05/09 12:29:18;;;;;;;6.18;4.68;;;52.70;10.90;;;;;;5096890;28;20032;-77
2022/05/09 12:32:03;;;;;;;7.47;4.68;;;53.00;10.60;;;;;;5115057;28;20440;-75
2022/05/09 12:34:41;;;;;;;;;;;53.00;10.90;;;;;;5080289;28;20081;-75
2022/05/09 12:37:10;;;;;;;5.93;4.70;;;52.80;11.20;;;;;;5096353;28;19954;-72
2022/05/09 12:40:04;;;;;;;11.63;5.43;;;52.50;10.50;;;;;;5096857;28;20070;-75
2022/05/09 12:42:54;;;;;;;11.40;4.57;;;52.40;10.80;;;;;;5095059;27;20047;-76
2022/05/09 12:45:20;;;;;;;10.93;5.53;;;52.80;10.90;;;;;;5095515;28;20036;-75
2022/05/09 12:47:59;;;;;;;13.43;5.38;;;52.80;10.20;;;;;;5097014;28;20393;-75
2022/05/09 12:50:39;;;;;;;7.35;4.88;;;52.70;10.30;;;;;;5114304;28;20039;-73
2022/05/09 12:53:11;;;;;;;8.65;5.00;;;52.80;10.40;;;;;;5082067;28;20093;-75
2022/05/09 12:55:57;;;;;;;9.70;4.90;;;53.00;10.80;;;;;;5093680;28;20512;-73
2022/05/09 12:58:29;;;;;;;12.77;4.93;;;53.00;10.60;;;;;;5094917;28;20061;-73
2022/05/09 13:01:34;;;;;;;6.50;4.57;;;53.00;10.60;;;;;;5114329;28;20035;-75
2022/05/09 13:04:44;;;;;;;6.53;4.97;;;53.10;10.80;;;;;;5096441;28;20062;-73
2022/05/09 13:07:20;;;;;;;7.95;4.88;;;53.20;10.10;;;;;;5095835;28;20043;-73
2022/05/09 13:09:55;;;;;;;8.15;4.95;;;53.30;10.00;;;;;;5096390;28;20035;-73
2022/05/09 13:12:23;;;;;;;6.00;4.30;;;52.80;9.40;;;;;;5094824;28;20043;-76
2022/05/09 13:15:01;;;;;;;7.38;4.75;;;52.10;9.60;;;;;;5111381;27;20076;-73
2022/05/09 13:17:41;;;;;;;9.13;5.03;;;52.20;10.10;;;;;;5113639;28;20040;-73
2022/05/09 13:20:31;;;;;;;10.23;5.20;;;52.40;9.80;;;;;;5095956;28;20024;-75
2022/05/09 13:23:01;;;;;;;6.60;4.55;;;52.70;10.10;;;;;;5096263;28;20059;-75
2022/05/09 13:26:04;;;;;;;6.05;4.60;;;52.90;9.40;;;;;;5095146;28;20052;-76
2022/05/09 13:29:10;;;;;;;11.10;4.68;;;52.70;10.10;;;;;;5093500;28;20090;-75
2022/05/09 13:31:44;;;;;;;7.30;4.68;;;51.70;10.60;;;;;;5075131;28;20043;-72
2022/05/09 13:34:49;;;;;;;7.18;4.90;;;51.80;9.80;;;;;;5092556;28;20067;-72
2022/05/09 13:37:49;;;;;;;6.13;4.65;;;51.80;10.10;;;;;;5074927;28;20035;-73
2022/05/09 13:40:15;;;;;;;6.45;4.53;;;52.00;10.60;;;;;;5074943;28;20154;-73
2022/05/09 13:43:02;;;;;;;9.02;5.00;;;51.90;10.20;;;;;;5070994;28;20500;-73
2022/05/09 13:45:41;;;;;;;12.38;5.30;;;51.20;10.70;;;;;;5075086;28;20043;-73
2022/05/09 13:51:09;;;;;;;6.28;4.43;;;51.60;10.30;;;;;;5077823;28;20397;-73
2022/05/09 13:53:56;;;;;;;6.97;4.43;;;51.60;10.40;;;;;;5075275;28;20123;-73
2022/05/09 13:56:26;;;;;;;8.60;4.38;;;51.10;10.60;;;;;;5078294;28;20076;-76